Time;durP1;ratioP1;P1;durP2;ratioP2;P2;SDS_P1;SDS_P2;PMS_P1;PMS_P2;Temp;Humidity;BMP_temperature;BMP_pressure;BME280_temperature;BME280_humidity;BME280_pressure;Samples;Min_cycle;Max_cycle;Signal;HPM_P1;HPM_P2
2022/07/13 00:02:42;;;;;;;1.98;0.80;;;19.90;89.60;;;;;;6858673;28;20479;-78
2022/07/13 00:06:05;;;;;;;2.03;0.73;;;20.00;89.90;;;;;;6862970;28;20510;-77
2022/07/13 00:09:27;;;;;;;2.23;0.90;;;20.10;89.40;;;;;;6862245;28;20467;-80
2022/07/13 00:12:49;;;;;;;2.05;0.90;;;20.10;89.50;;;;;;6863254;28;20478;-78
2022/07/13 00:16:13;;;;;;;2.83;1.10;;;20.20;89.10;;;;;;6862375;28;20947;-79
2022/07/13 00:19:35;;;;;;;1.90;0.80;;;20.00;89.00;;;;;;6863009;28;20955;-79
2022/07/13 00:22:57;;;;;;;2.15;0.85;;;19.80;90.00;;;;;;6861621;28;20958;-80
2022/07/13 00:26:19;;;;;;;1.60;0.70;;;19.70;90.20;;;;;;6861573;28;20578;-78
2022/07/13 00:29:41;;;;;;;3.22;0.80;;;19.70;90.50;;;;;;6862759;28;20436;-79
2022/07/13 00:33:05;;;;;;;1.93;0.80;;;19.70;90.50;;;;;;6862706;28;20493;-79
2022/07/13 00:36:27;;;;;;;3.00;0.88;;;19.50;90.60;;;;;;6860414;28;20523;-80
2022/07/13 00:39:49;;;;;;;2.60;0.90;;;19.30;90.70;;;;;;6861777;28;20447;-78
2022/07/13 00:43:11;;;;;;;2.70;0.90;;;19.10;91.20;;;;;;6843225;28;20438;-80
2022/07/13 00:46:34;;;;;;;1.73;0.80;;;19.20;91.40;;;;;;6835612;29;20472;-79
2022/07/13 00:49:57;;;;;;;2.03;0.70;;;19.20;91.30;;;;;;6855077;28;20480;-80
2022/07/13 00:53:20;;;;;;;3.53;0.90;;;19.30;91.20;;;;;;6859515;28;20436;-79
2022/07/13 00:56:42;;;;;;;2.47;0.80;;;19.20;91.20;;;;;;6862100;28;20872;-79
2022/07/13 01:00:07;;;;;;;2.70;0.90;;;19.10;91.70;;;;;;6861666;28;20447;-79
2022/07/13 01:03:29;;;;;;;2.23;0.73;;;19.10;91.70;;;;;;6862081;28;20443;-79
2022/07/13 01:06:55;;;;;;;3.15;1.00;;;19.00;91.80;;;;;;6860566;28;20478;-78
2022/07/13 01:10:17;;;;;;;1.75;0.80;;;18.90;91.90;;;;;;6861084;28;20476;-77
2022/07/13 01:13:40;;;;;;;3.03;0.90;;;18.70;92.10;;;;;;6861096;28;20473;-77
2022/07/13 01:17:02;;;;;;;2.42;1.00;;;18.50;92.50;;;;;;6868158;28;20849;-80
2022/07/13 01:20:25;;;;;;;3.00;1.00;;;18.50;92.80;;;;;;6883022;28;21142;-79
2022/07/13 01:23:49;;;;;;;2.70;0.90;;;18.60;93.20;;;;;;6859691;28;20471;-78
2022/07/13 01:27:11;;;;;;;3.58;0.93;;;18.60;93.00;;;;;;6859745;28;20443;-78
2022/07/13 01:30:34;;;;;;;2.03;0.88;;;18.70;93.10;;;;;;6861120;28;20535;-77
2022/07/13 01:33:56;;;;;;;2.90;0.90;;;18.60;93.10;;;;;;6860698;28;20919;-78
2022/07/13 01:37:18;;;;;;;2.83;1.00;;;18.70;93.40;;;;;;6860528;28;20481;-80
2022/07/13 01:40:42;;;;;;;2.30;0.90;;;18.70;93.40;;;;;;6859829;28;20448;-80
2022/07/13 01:44:05;;;;;;;2.10;0.88;;;18.60;93.40;;;;;;6859980;28;20440;-79
2022/07/13 01:47:27;;;;;;;2.13;0.90;;;18.60;93.50;;;;;;6859912;28;20584;-79
2022/07/13 01:50:49;;;;;;;2.47;1.00;;;18.60;93.40;;;;;;6860257;28;20443;-79
2022/07/13 01:54:11;;;;;;;1.98;0.95;;;18.40;93.50;;;;;;6859397;28;20488;-79
2022/07/13 01:57:35;;;;;;;2.67;0.93;;;18.30;94.10;;;;;;6859899;28;20939;-78
2022/07/13 02:00:58;;;;;;;1.67;0.85;;;18.40;94.10;;;;;;6859804;28;20448;-79
2022/07/13 02:04:20;;;;;;;1.92;0.90;;;18.40;94.00;;;;;;6858057;28;20462;-80
2022/07/13 02:07:42;;;;;;;2.50;0.95;;;18.30;94.00;;;;;;6859503;28;20503;-79
2022/07/13 02:11:05;;;;;;;2.70;1.00;;;18.20;94.00;;;;;;6860393;28;20497;-78
2022/07/13 02:14:28;;;;;;;2.10;0.90;;;18.20;94.00;;;;;;6858902;28;20491;-78
2022/07/13 02:17:50;;;;;;;1.67;0.80;;;18.20;94.30;;;;;;6858591;28;20476;-79
2022/07/13 02:21:12;;;;;;;2.72;0.90;;;18.40;94.10;;;;;;6859557;28;20497;-79
2022/07/13 02:24:35;;;;;;;2.80;0.90;;;18.30;94.00;;;;;;6859153;28;20436;-80
2022/07/13 02:27:57;;;;;;;2.40;0.90;;;18.20;94.40;;;;;;6859350;28;20440;-78
2022/07/13 02:31:20;;;;;;;2.23;0.70;;;18.20;94.50;;;;;;6858753;28;20439;-79
2022/07/13 02:34:42;;;;;;;3.08;0.90;;;18.40;94.10;;;;;;6858604;28;20462;-80
2022/07/13 02:38:05;;;;;;;3.17;0.90;;;18.40;94.00;;;;;;6859642;28;20500;-77
2022/07/13 02:41:27;;;;;;;3.78;0.80;;;18.20;93.90;;;;;;6855422;28;20464;-78
2022/07/13 02:44:49;;;;;;;4.80;1.08;;;18.00;94.30;;;;;;6852888;28;20475;-79
2022/07/13 02:48:12;;;;;;;2.10;0.90;;;17.90;94.70;;;;;;6858638;28;20482;-79
2022/07/13 02:51:35;;;;;;;3.22;1.02;;;18.00;94.90;;;;;;6856520;28;20479;-79
2022/07/13 02:54:58;;;;;;;2.25;0.85;;;17.90;95.20;;;;;;6857543;28;20446;-79
2022/07/13 02:58:20;;;;;;;2.78;1.00;;;17.80;95.00;;;;;;6859397;28;20928;-79
2022/07/13 03:01:42;;;;;;;2.08;0.80;;;17.70;95.40;;;;;;6859442;28;20822;-79
2022/07/13 03:05:08;;;;;;;2.13;0.90;;;17.60;95.60;;;;;;6857319;28;20532;-79
2022/07/13 03:08:30;;;;;;;2.53;0.80;;;17.60;95.70;;;;;;6859353;28;20498;-77
2022/07/13 03:11:52;;;;;;;2.30;1.00;;;17.60;96.00;;;;;;6858851;28;20900;-77
2022/07/13 03:15:14;;;;;;;2.22;0.85;;;17.70;96.30;;;;;;6873950;28;20846;-79
2022/07/13 03:18:36;;;;;;;2.83;0.88;;;17.70;95.80;;;;;;6858283;28;20495;-79
2022/07/13 03:22:00;;;;;;;2.22;0.90;;;17.60;95.60;;;;;;6857375;28;20499;-79
2022/07/13 03:25:22;;;;;;;1.88;0.90;;;17.60;96.10;;;;;;6857915;28;20482;-79
2022/07/13 03:28:45;;;;;;;2.60;0.80;;;17.70;96.30;;;;;;6859310;28;20916;-78
2022/07/13 03:32:07;;;;;;;2.90;0.90;;;17.70;96.20;;;;;;6859368;28;20842;-79
2022/07/13 03:35:29;;;;;;;2.60;1.07;;;17.60;95.70;;;;;;6857526;28;20450;-79
2022/07/13 03:38:53;;;;;;;2.72;0.88;;;17.40;95.70;;;;;;6860332;28;20447;-78
2022/07/13 03:42:15;;;;;;;3.25;0.80;;;17.20;96.30;;;;;;6863019;28;20529;-79
2022/07/13 03:45:37;;;;;;;2.95;1.08;;;17.20;96.30;;;;;;6862895;28;20451;-79
2022/07/13 03:48:59;;;;;;;2.83;0.90;;;17.20;96.50;;;;;;6862590;28;20470;-79
2022/07/13 03:52:21;;;;;;;1.73;0.73;;;17.30;96.50;;;;;;6862450;28;20435;-78
2022/07/13 03:55:44;;;;;;;2.65;1.00;;;17.40;96.30;;;;;;6863936;28;20435;-78
2022/07/13 03:59:06;;;;;;;3.60;1.05;;;17.50;96.50;;;;;;6861884;28;20931;-79
2022/07/13 04:02:28;;;;;;;2.30;0.90;;;17.30;96.40;;;;;;6862828;28;20435;-79
2022/07/13 04:05:51;;;;;;;3.70;1.10;;;17.40;96.00;;;;;;6863090;28;20431;-79
2022/07/13 04:09:13;;;;;;;3.15;1.08;;;17.60;95.80;;;;;;6862751;28;20435;-77
2022/07/13 04:12:36;;;;;;;2.33;1.00;;;17.60;95.70;;;;;;6862516;28;20502;-79
2022/07/13 04:15:58;;;;;;;2.63;1.00;;;17.70;95.60;;;;;;6864999;28;20436;-79
2022/07/13 04:19:20;;;;;;;3.15;1.00;;;17.60;95.70;;;;;;6863807;28;20470;-78
2022/07/13 04:22:42;;;;;;;2.45;1.10;;;17.60;96.00;;;;;;6862469;28;20475;-78
2022/07/13 04:26:04;;;;;;;2.55;1.10;;;17.70;96.00;;;;;;6862947;28;20478;-78
2022/07/13 04:29:28;;;;;;;2.55;1.00;;;17.70;96.10;;;;;;6862319;28;20492;-78
2022/07/13 04:32:50;;;;;;;3.17;1.13;;;17.70;96.00;;;;;;6862666;28;20971;-78
2022/07/13 04:36:12;;;;;;;2.20;1.00;;;17.70;96.20;;;;;;6861963;28;20436;-78
2022/07/13 04:39:34;;;;;;;2.63;1.00;;;17.80;96.40;;;;;;6861250;28;20443;-76
2022/07/13 04:42:56;;;;;;;3.27;1.00;;;18.00;96.30;;;;;;6849720;28;20443;-76
2022/07/13 04:46:20;;;;;;;2.37;1.00;;;18.00;96.20;;;;;;6861104;28;20522;-77
2022/07/13 04:49:42;;;;;;;2.83;1.10;;;18.00;96.30;;;;;;6861394;28;20451;-76
2022/07/13 04:53:04;;;;;;;2.65;1.05;;;18.00;96.30;;;;;;6861116;28;20475;-76
2022/07/13 04:56:26;;;;;;;2.63;1.00;;;18.00;96.30;;;;;;6861696;28;20436;-74
2022/07/13 04:59:48;;;;;;;3.25;1.10;;;18.00;96.50;;;;;;6856687;28;20441;-78
2022/07/13 05:03:11;;;;;;;2.92;0.90;;;18.00;96.60;;;;;;6860022;28;20451;-77
2022/07/13 05:06:34;;;;;;;3.55;0.90;;;17.90;96.80;;;;;;6860722;28;20918;-77
2022/07/13 05:09:56;;;;;;;3.03;1.00;;;17.80;96.60;;;;;;6860920;28;20458;-77
2022/07/13 05:13:18;;;;;;;3.15;0.93;;;17.70;96.70;;;;;;6868111;28;20494;-75
2022/07/13 05:16:40;;;;;;;2.50;0.90;;;17.70;97.30;;;;;;6861195;28;20472;-74
2022/07/13 05:20:04;;;;;;;3.60;1.10;;;17.70;97.00;;;;;;6860893;28;20448;-75
2022/07/13 05:23:26;;;;;;;2.55;1.02;;;17.80;96.50;;;;;;6857521;28;20447;-74
2022/07/13 05:26:48;;;;;;;2.10;0.95;;;17.80;96.10;;;;;;6859469;28;20476;-76
2022/07/13 05:30:11;;;;;;;2.92;1.15;;;17.80;96.60;;;;;;6867443;28;20484;-79
2022/07/13 05:33:33;;;;;;;3.40;1.10;;;17.80;97.00;;;;;;6858867;28;20443;-78
2022/07/13 05:36:56;;;;;;;3.83;1.20;;;17.90;96.40;;;;;;6853896;28;20442;-76
2022/07/13 05:40:18;;;;;;;3.17;1.30;;;18.00;96.20;;;;;;6857861;28;20481;-76
2022/07/13 05:43:41;;;;;;;3.55;1.10;;;18.10;96.10;;;;;;6860369;28;20782;-78
2022/07/13 05:47:03;;;;;;;3.83;1.38;;;18.20;96.00;;;;;;6858887;28;20523;-75
2022/07/13 05:50:25;;;;;;;3.63;1.20;;;18.20;96.00;;;;;;6807850;29;20534;-78
2022/07/13 05:53:48;;;;;;;5.00;1.40;;;18.20;96.20;;;;;;6834630;28;20492;-76
2022/07/13 05:57:10;;;;;;;4.70;1.30;;;18.20;96.30;;;;;;6858895;28;20440;-75
2022/07/13 06:00:32;;;;;;;4.18;1.42;;;18.20;96.30;;;;;;6875943;28;20477;-79
2022/07/13 06:03:54;;;;;;;5.77;1.40;;;18.30;96.50;;;;;;6857860;28;20966;-79
2022/07/13 06:07:17;;;;;;;4.10;1.40;;;18.30;96.60;;;;;;6860522;28;20450;-79
2022/07/13 06:10:40;;;;;;;3.13;1.37;;;18.40;96.60;;;;;;6880481;28;20431;-80
2022/07/13 06:14:02;;;;;;;2.87;1.40;;;18.50;96.40;;;;;;6870152;28;20589;-78
2022/07/13 06:17:24;;;;;;;2.90;1.25;;;18.50;96.50;;;;;;6887110;28;20437;-75
2022/07/13 06:20:46;;;;;;;2.90;1.10;;;18.60;96.00;;;;;;6879773;28;20477;-75
2022/07/13 06:24:08;;;;;;;2.28;1.10;;;18.70;95.60;;;;;;6862622;28;20490;-77
2022/07/13 06:27:32;;;;;;;2.77;1.10;;;18.80;95.80;;;;;;6884278;28;20476;-79
2022/07/13 06:30:54;;;;;;;4.90;1.20;;;18.80;95.90;;;;;;6886634;28;20519;-79
2022/07/13 06:34:16;;;;;;;3.75;1.20;;;18.80;96.10;;;;;;6886841;28;20485;-78
2022/07/13 06:37:38;;;;;;;2.80;1.10;;;19.00;96.00;;;;;;6886701;28;20431;-79
2022/07/13 06:41:00;;;;;;;3.72;1.27;;;19.00;96.00;;;;;;6886451;28;20453;-79
2022/07/13 06:44:23;;;;;;;3.23;1.00;;;19.20;95.70;;;;;;6886645;28;20453;-78
2022/07/13 06:47:45;;;;;;;2.33;1.08;;;19.20;95.60;;;;;;6886463;28;20438;-78
2022/07/13 06:51:07;;;;;;;3.38;1.30;;;19.30;95.50;;;;;;6886474;28;20888;-79
2022/07/13 06:54:29;;;;;;;3.15;1.30;;;19.40;95.60;;;;;;6886410;28;20426;-79
2022/07/13 06:57:52;;;;;;;3.63;1.23;;;19.40;95.60;;;;;;6886298;28;20869;-79
2022/07/13 07:01:15;;;;;;;3.03;1.40;;;19.70;95.70;;;;;;6886223;28;20801;-79
2022/07/13 07:04:37;;;;;;;4.15;1.40;;;19.70;95.80;;;;;;6886432;28;20941;-78
2022/07/13 07:08:00;;;;;;;4.10;1.40;;;19.70;95.80;;;;;;6886121;28;20901;-79
2022/07/13 07:11:22;;;;;;;2.87;1.33;;;19.70;95.50;;;;;;6886053;28;20437;-79
2022/07/13 07:14:44;;;;;;;3.88;1.40;;;19.80;95.20;;;;;;6889064;28;20489;-79
2022/07/13 07:18:07;;;;;;;4.33;1.37;;;19.90;95.40;;;;;;6891921;28;20441;-78
2022/07/13 07:21:29;;;;;;;3.77;1.23;;;19.90;95.50;;;;;;6891540;28;20442;-78
2022/07/13 07:24:52;;;;;;;3.00;1.30;;;20.00;95.30;;;;;;6891882;28;20528;-79
2022/07/13 07:28:14;;;;;;;3.70;1.30;;;20.20;94.80;;;;;;6891366;28;20427;-78
2022/07/13 07:31:36;;;;;;;3.05;1.30;;;20.20;95.20;;;;;;6891662;28;20473;-79
2022/07/13 07:34:59;;;;;;;3.03;1.20;;;20.30;95.60;;;;;;6891420;28;20466;-77
2022/07/13 07:38:21;;;;;;;3.10;1.30;;;20.40;94.50;;;;;;6891136;28;20478;-78
2022/07/13 07:41:43;;;;;;;4.03;1.20;;;20.50;94.40;;;;;;6891272;28;20963;-75
2022/07/13 07:45:08;;;;;;;3.38;1.23;;;20.60;94.20;;;;;;6891123;28;20438;-77
2022/07/13 07:48:30;;;;;;;3.38;1.17;;;20.80;94.00;;;;;;6891224;28;20781;-78
2022/07/13 07:51:53;;;;;;;2.97;1.10;;;20.90;93.80;;;;;;6890824;28;20805;-78
2022/07/13 07:55:15;;;;;;;3.73;1.23;;;21.00;93.90;;;;;;6890868;28;20477;-77
2022/07/13 07:58:38;;;;;;;3.50;1.27;;;21.20;93.60;;;;;;6891024;28;20520;-79
2022/07/13 08:02:01;;;;;;;3.37;1.10;;;21.20;93.60;;;;;;6880748;28;20933;-80
2022/07/13 08:05:23;;;;;;;2.78;1.15;;;21.30;93.40;;;;;;6863770;28;20436;-79
2022/07/13 08:08:47;;;;;;;3.60;1.23;;;21.40;93.60;;;;;;6863725;28;20467;-79
2022/07/13 08:12:09;;;;;;;3.05;1.25;;;21.60;93.30;;;;;;6864242;28;20435;-78
2022/07/13 08:15:32;;;;;;;3.42;1.13;;;21.70;93.20;;;;;;6867174;28;20438;-80
2022/07/13 08:18:54;;;;;;;3.65;1.10;;;21.90;93.00;;;;;;6867711;28;20913;-79
2022/07/13 08:22:16;;;;;;;5.10;1.20;;;22.10;92.10;;;;;;6868464;28;20922;-79
2022/07/13 08:25:39;;;;;;;4.38;1.63;;;22.20;92.20;;;;;;6869126;28;20443;-80
2022/07/13 08:29:02;;;;;;;3.40;1.20;;;22.30;91.50;;;;;;6868217;28;20436;-78
2022/07/13 08:32:24;;;;;;;4.30;1.52;;;22.40;91.60;;;;;;6863431;28;20770;-79
2022/07/13 08:39:26;;;;;;;5.20;1.90;;;22.70;91.00;;;;;;6862895;28;20424;-78
2022/07/13 08:42:49;;;;;;;3.50;1.60;;;22.90;90.20;;;;;;6864173;28;20929;-79
2022/07/13 08:46:12;;;;;;;4.25;1.48;;;23.00;88.20;;;;;;6864238;28;20960;-76
2022/07/13 08:49:34;;;;;;;4.07;1.50;;;23.20;88.00;;;;;;6864612;28;20440;-76
2022/07/13 08:52:56;;;;;;;3.95;1.30;;;23.20;87.00;;;;;;6862865;28;20905;-79
2022/07/13 08:56:19;;;;;;;3.10;1.40;;;23.30;86.40;;;;;;6862293;28;20447;-77
2022/07/13 08:59:42;;;;;;;3.05;1.20;;;23.50;85.50;;;;;;6862384;28;20431;-78
2022/07/13 09:03:04;;;;;;;3.92;1.50;;;23.60;85.80;;;;;;6861609;28;20448;-75
2022/07/13 09:06:44;;;;;;;3.30;1.30;;;23.60;84.70;;;;;;6862589;28;20436;-77
2022/07/13 09:10:07;;;;;;;5.13;1.50;;;23.70;85.80;;;;;;6861789;28;20435;-77
2022/07/13 09:13:38;;;;;;;3.73;1.37;;;23.80;85.60;;;;;;6861958;28;20494;-80
2022/07/13 09:17:02;;;;;;;5.05;1.17;;;23.90;84.60;;;;;;6861934;28;20444;-79
2022/07/13 09:20:24;;;;;;;2.80;1.20;;;24.00;85.30;;;;;;6860165;28;20447;-75
2022/07/13 09:23:49;;;;;;;4.55;1.40;;;24.10;83.90;;;;;;6862627;28;20440;-79
2022/07/13 09:27:12;;;;;;;2.17;1.00;;;24.10;83.80;;;;;;6861660;28;20799;-78
2022/07/13 09:30:36;;;;;;;3.83;1.03;;;24.20;80.90;;;;;;6861304;28;20835;-79
2022/07/13 09:33:59;;;;;;;3.37;1.20;;;24.30;79.60;;;;;;6862811;28;20443;-80
2022/07/13 09:37:23;;;;;;;3.38;1.10;;;24.40;80.40;;;;;;6862291;28;20498;-75
2022/07/13 09:40:45;;;;;;;4.13;1.13;;;24.60;86.70;;;;;;6862146;28;20447;-75
2022/07/13 09:47:52;;;;;;;3.60;1.10;;;24.50;82.20;;;;;;6860669;28;20782;-78
2022/07/13 09:51:16;;;;;;;3.70;1.17;;;24.50;82.10;;;;;;6860263;28;20443;-74
2022/07/13 09:54:40;;;;;;;3.47;1.20;;;24.60;82.40;;;;;;6861013;28;20468;-79
2022/07/13 09:58:07;;;;;;;3.60;1.10;;;24.80;82.20;;;;;;6864560;28;20767;-79
2022/07/13 10:01:29;;;;;;;3.00;1.10;;;24.80;78.00;;;;;;6856739;28;20499;-78
2022/07/13 10:04:52;;;;;;;3.63;0.98;;;24.90;78.70;;;;;;6860805;28;20459;-79
2022/07/13 10:08:16;;;;;;;3.10;1.20;;;24.90;76.70;;;;;;6859596;28;20810;-78
2022/07/13 10:11:39;;;;;;;7.05;1.40;;;24.90;76.20;;;;;;6859324;28;20443;-79
2022/07/13 10:15:02;;;;;;;4.50;1.10;;;25.00;75.90;;;;;;6858398;28;20933;-79
2022/07/13 10:18:29;;;;;;;3.60;0.93;;;25.20;76.60;;;;;;6860327;28;20443;-80
2022/07/13 10:22:04;;;;;;;3.72;1.10;;;25.20;75.60;;;;;;6853965;28;20982;-79
2022/07/13 10:25:42;;;;;;;3.63;1.10;;;25.30;76.40;;;;;;6863654;28;20534;-79
2022/07/13 10:29:07;;;;;;;4.68;1.50;;;25.40;74.00;;;;;;6855318;28;20803;-84
2022/07/13 10:32:31;;;;;;;2.30;1.10;;;25.60;73.80;;;;;;6859512;28;20515;-79
2022/07/13 10:35:55;;;;;;;3.22;1.05;;;25.60;73.60;;;;;;6862210;28;20436;-75
2022/07/13 10:39:19;;;;;;;2.90;1.00;;;25.70;73.50;;;;;;6851108;28;20536;-78
2022/07/13 10:43:27;;;;;;;3.03;1.00;;;25.70;74.40;;;;;;6832615;28;20486;-78
2022/07/13 10:46:51;;;;;;;3.57;1.10;;;25.80;71.20;;;;;;6797962;29;20481;-76
2022/07/13 10:50:24;;;;;;;3.90;1.00;;;25.80;70.30;;;;;;6850654;28;20447;-77
2022/07/13 10:54:06;;;;;;;3.42;1.10;;;25.80;67.70;;;;;;6859096;28;20441;-79
2022/07/13 10:57:28;;;;;;;3.85;1.20;;;25.90;67.40;;;;;;6858751;28;20439;-78
2022/07/13 11:00:52;;;;;;;2.67;0.90;;;26.00;69.00;;;;;;6858957;28;20471;-75
2022/07/13 11:04:17;;;;;;;5.82;1.90;;;26.00;68.10;;;;;;6857270;28;20482;-77
2022/07/13 11:07:41;;;;;;;10.70;4.57;;;26.00;69.10;;;;;;6858981;28;20447;-77
2022/07/13 11:11:12;;;;;;;4.73;1.97;;;26.00;69.20;;;;;;6859613;28;20436;-77
2022/07/13 11:14:50;;;;;;;4.47;1.30;;;26.10;70.80;;;;;;6858469;28;20440;-78
2022/07/13 11:18:28;;;;;;;3.70;1.15;;;26.20;71.10;;;;;;6858998;28;20490;-75
2022/07/13 11:22:08;;;;;;;8.77;1.60;;;26.30;71.60;;;;;;6859074;28;20443;-80
2022/07/13 11:25:42;;;;;;;4.63;1.17;;;26.30;68.60;;;;;;6870407;28;20916;-77
2022/07/13 11:29:16;;;;;;;3.55;1.10;;;26.30;66.80;;;;;;6864794;28;20436;-78
2022/07/13 11:32:39;;;;;;;5.13;3.22;;;26.50;69.20;;;;;;6859438;28;20440;-79
2022/07/13 11:36:04;;;;;;;3.50;1.20;;;26.50;67.10;;;;;;6861006;28;20436;-80
2022/07/13 11:39:28;;;;;;;2.50;0.90;;;26.50;63.40;;;;;;6860606;28;20494;-78
2022/07/13 11:42:53;;;;;;;2.28;1.00;;;26.80;63.80;;;;;;6858766;28;20944;-77
2022/07/13 11:46:15;;;;;;;2.50;0.80;;;26.90;62.40;;;;;;6859283;28;20458;-77
2022/07/13 11:49:45;;;;;;;2.38;0.90;;;27.00;63.30;;;;;;6858799;28;20471;-77
2022/07/13 11:53:08;;;;;;;3.30;0.90;;;27.10;64.90;;;;;;6869800;28;20428;-77
2022/07/13 11:56:30;;;;;;;2.45;0.77;;;27.30;62.50;;;;;;6858993;28;20927;-77
2022/07/13 11:59:53;;;;;;;3.00;0.80;;;27.50;60.70;;;;;;6860572;28;20455;-76
2022/07/13 12:03:15;;;;;;;2.80;0.82;;;27.50;58.30;;;;;;6848338;28;20570;-77
2022/07/13 12:06:37;;;;;;;3.27;1.00;;;27.60;58.70;;;;;;6837526;29;20958;-80
2022/07/13 12:10:02;;;;;;;2.67;0.80;;;27.80;60.00;;;;;;6836974;29;20433;-77
2022/07/13 12:13:25;;;;;;;2.63;0.88;;;27.80;54.90;;;;;;6837164;29;20460;-77
2022/07/13 12:16:47;;;;;;;5.18;0.80;;;28.00;55.80;;;;;;6837038;29;20434;-79
2022/07/13 12:20:14;;;;;;;1.85;0.60;;;28.10;56.10;;;;;;6836769;29;20473;-76
2022/07/13 12:23:36;;;;;;;1.57;0.50;;;28.40;50.70;;;;;;6836759;29;20536;-80
2022/07/13 12:26:59;;;;;;;3.40;0.77;;;28.50;49.80;;;;;;6836652;29;20890;-77
2022/07/13 12:30:22;;;;;;;2.97;0.75;;;28.60;50.10;;;;;;6836615;29;20472;-79
2022/07/13 12:33:47;;;;;;;2.17;0.60;;;28.70;49.10;;;;;;6847762;28;20476;-79
2022/07/13 12:37:09;;;;;;;2.60;0.80;;;28.80;50.00;;;;;;6864012;28;20783;-78
2022/07/13 12:40:39;;;;;;;1.73;0.60;;;29.00;50.70;;;;;;6862281;28;20555;-79
2022/07/13 12:44:05;;;;;;;3.17;0.75;;;29.30;50.40;;;;;;6861860;28;20448;-79
2022/07/13 12:47:27;;;;;;;1.83;0.65;;;29.40;48.70;;;;;;6862453;28;20472;-80
2022/07/13 12:50:59;;;;;;;1.83;0.60;;;29.20;48.10;;;;;;6860194;28;20443;-79
2022/07/13 12:54:41;;;;;;;1.52;0.50;;;29.00;47.60;;;;;;6862000;28;20448;-76
2022/07/13 12:58:03;;;;;;;2.10;0.60;;;29.00;46.60;;;;;;6861398;28;20519;-80
2022/07/13 13:01:32;;;;;;;1.92;0.50;;;29.00;47.00;;;;;;6864544;28;20481;-81
2022/07/13 13:04:54;;;;;;;1.88;0.60;;;29.00;45.50;;;;;;6862112;28;20476;-79
2022/07/13 13:08:17;;;;;;;1.45;0.50;;;29.20;45.00;;;;;;6862101;28;20475;-80
2022/07/13 13:11:42;;;;;;;2.70;0.60;;;29.40;46.80;;;;;;6862575;28;20543;-80
2022/07/13 13:15:05;;;;;;;2.63;0.70;;;29.60;46.80;;;;;;6860127;28;20523;-78
2022/07/13 13:18:29;;;;;;;2.40;0.70;;;30.00;49.40;;;;;;6858082;28;20476;-79
2022/07/13 13:21:51;;;;;;;3.40;0.77;;;30.10;49.70;;;;;;6878232;28;20445;-80
2022/07/13 13:25:13;;;;;;;3.37;0.60;;;30.00;48.70;;;;;;6861815;28;20953;-78
2022/07/13 13:30:43;;;;;;;1.97;0.70;;;30.10;47.50;;;;;;6861189;28;20439;-80
2022/07/13 13:32:17;;;;;;;1.65;0.57;;;29.90;46.60;;;;;;6863108;28;20439;-80
2022/07/13 13:35:41;;;;;;;3.38;0.60;;;29.70;46.90;;;;;;6861366;28;20480;-80
2022/07/13 13:39:03;;;;;;;2.17;0.55;;;29.70;48.10;;;;;;6866635;28;20544;-80
2022/07/13 13:42:25;;;;;;;1.65;0.60;;;29.80;46.70;;;;;;6866084;28;20444;-79
2022/07/13 13:45:47;;;;;;;2.83;0.70;;;29.80;46.90;;;;;;6860135;28;20467;-77
2022/07/13 13:49:11;;;;;;;1.90;0.70;;;29.80;47.90;;;;;;6866046;28;20946;-79
2022/07/13 13:52:34;;;;;;;1.60;0.70;;;30.00;47.60;;;;;;6860750;28;20436;-78
2022/07/13 13:55:56;;;;;;;3.42;0.65;;;30.00;45.90;;;;;;6860078;28;20447;-79
2022/07/13 13:59:18;;;;;;;3.10;0.60;;;30.10;46.10;;;;;;6869915;28;20488;-80
2022/07/13 14:02:41;;;;;;;2.22;0.70;;;30.10;46.50;;;;;;6834096;28;20477;-78
2022/07/13 14:06:03;;;;;;;3.10;0.70;;;30.10;45.90;;;;;;6848960;28;20587;-80
2022/07/13 14:09:27;;;;;;;3.33;0.77;;;30.20;46.50;;;;;;6857957;28;20444;-77
2022/07/13 14:12:49;;;;;;;2.35;0.70;;;30.10;44.70;;;;;;6878089;28;20604;-81
2022/07/13 14:16:12;;;;;;;1.67;0.60;;;30.10;45.60;;;;;;6860173;28;20432;-79
2022/07/13 14:19:34;;;;;;;2.40;0.70;;;30.10;45.60;;;;;;6860122;28;20798;-79
2022/07/13 14:22:57;;;;;;;1.83;0.63;;;30.10;44.40;;;;;;6861272;28;20487;-79
2022/07/13 14:26:20;;;;;;;1.98;0.57;;;29.90;43.50;;;;;;6860047;28;20432;-78
2022/07/13 14:29:42;;;;;;;1.70;0.60;;;29.90;44.50;;;;;;6859521;28;20447;-80
2022/07/13 14:33:04;;;;;;;2.27;0.67;;;30.00;43.60;;;;;;6857838;28;20440;-77
2022/07/13 14:36:27;;;;;;;2.23;0.63;;;30.00;44.50;;;;;;6859894;28;20950;-80
2022/07/13 14:39:52;;;;;;;1.75;0.63;;;29.90;44.40;;;;;;6861983;28;20538;-80
2022/07/13 14:43:16;;;;;;;2.77;0.90;;;29.80;45.30;;;;;;6863808;28;20450;-79
2022/07/13 14:46:38;;;;;;;3.72;1.55;;;29.80;44.80;;;;;;6858439;28;20436;-78
2022/07/13 14:50:00;;;;;;;2.38;0.60;;;29.70;44.70;;;;;;6859675;28;20436;-80
2022/07/13 14:53:22;;;;;;;1.95;0.65;;;29.70;45.70;;;;;;6859133;28;20432;-76
2022/07/13 14:56:44;;;;;;;1.80;0.80;;;29.60;45.60;;;;;;6858245;28;20498;-76
2022/07/13 15:00:09;;;;;;;2.25;0.70;;;29.50;45.60;;;;;;6861088;28;20826;-75
2022/07/13 15:03:31;;;;;;;2.67;0.90;;;29.50;45.60;;;;;;6859569;28;21023;-76
2022/07/13 15:06:53;;;;;;;3.03;1.13;;;29.50;46.00;;;;;;6857498;28;20468;-75
2022/07/13 15:10:17;;;;;;;4.32;1.30;;;29.30;48.50;;;;;;6860442;28;20440;-83
2022/07/13 15:13:40;;;;;;;4.07;1.00;;;29.30;51.30;;;;;;6857260;28;20434;-77
2022/07/13 15:17:03;;;;;;;5.80;1.00;;;29.20;50.50;;;;;;6863065;28;20478;-75
2022/07/13 15:20:25;;;;;;;4.28;1.00;;;29.10;55.10;;;;;;6883019;28;20430;-74
2022/07/13 15:23:48;;;;;;;4.00;1.00;;;29.00;55.60;;;;;;6858329;28;20492;-76
2022/07/13 15:27:10;;;;;;;4.23;1.97;;;28.90;55.70;;;;;;6857925;28;20439;-79
2022/07/13 15:30:32;;;;;;;4.97;1.85;;;28.70;57.70;;;;;;6860296;28;21012;-77
2022/07/13 15:33:57;;;;;;;4.93;2.25;;;28.80;56.20;;;;;;6878985;28;20438;-77
2022/07/13 15:37:19;;;;;;;5.75;2.40;;;28.80;55.90;;;;;;6871769;28;20523;-76
2022/07/13 15:44:22;;;;;;;6.07;2.90;;;28.70;56.40;;;;;;6860308;28;20473;-77
2022/07/13 15:47:44;;;;;;;8.05;3.90;;;28.60;58.40;;;;;;6857337;28;20500;-79
2022/07/13 15:51:07;;;;;;;6.18;3.60;;;28.60;58.90;;;;;;6887014;28;20449;-80
2022/07/13 15:54:30;;;;;;;7.70;4.53;;;28.70;57.40;;;;;;6887119;28;20462;-80
2022/07/13 15:57:53;;;;;;;9.68;5.13;;;28.60;57.10;;;;;;6860091;28;20834;-79
2022/07/13 16:01:15;;;;;;;11.35;5.80;;;28.60;58.10;;;;;;6859804;28;20930;-81
2022/07/13 16:04:37;;;;;;;9.55;5.93;;;28.60;56.90;;;;;;6844299;28;20443;-79
2022/07/13 16:08:00;;;;;;;10.65;5.90;;;28.60;57.20;;;;;;6858785;28;20524;-79
2022/07/13 16:11:23;;;;;;;7.07;4.30;;;28.70;56.90;;;;;;6866243;28;20527;-77
2022/07/13 16:14:45;;;;;;;5.78;3.15;;;28.70;56.90;;;;;;6858269;28;20444;-78
2022/07/13 16:18:07;;;;;;;4.85;2.13;;;28.70;56.90;;;;;;6850449;28;20464;-78
2022/07/13 16:21:29;;;;;;;4.63;1.40;;;28.60;56.90;;;;;;6859365;28;20442;-78
2022/07/13 16:24:52;;;;;;;3.63;1.20;;;28.50;56.80;;;;;;6859495;28;20487;-78
2022/07/13 16:28:14;;;;;;;4.32;2.08;;;28.50;56.60;;;;;;6859612;28;20440;-78
2022/07/13 16:31:37;;;;;;;3.90;1.48;;;28.40;57.50;;;;;;6862572;28;20432;-79
2022/07/13 16:34:59;;;;;;;5.35;2.08;;;28.40;58.40;;;;;;6862798;28;20467;-79
2022/07/13 16:38:21;;;;;;;4.80;1.67;;;28.40;61.90;;;;;;6863079;28;20456;-79
2022/07/13 16:41:45;;;;;;;3.10;1.10;;;28.30;67.40;;;;;;6866517;28;20432;-79
2022/07/13 16:45:09;;;;;;;2.38;0.93;;;28.40;70.10;;;;;;6866077;28;20471;-79
2022/07/13 16:48:31;;;;;;;2.40;0.90;;;28.20;70.20;;;;;;6865167;28;20810;-79
2022/07/13 16:51:53;;;;;;;4.20;1.00;;;28.30;73.60;;;;;;6862992;28;20467;-77
2022/07/13 16:55:15;;;;;;;5.18;1.33;;;28.20;74.70;;;;;;6862584;28;20447;-77
2022/07/13 16:58:38;;;;;;;4.10;1.00;;;28.10;73.30;;;;;;6862439;28;20436;-77
2022/07/13 17:02:02;;;;;;;5.15;1.50;;;28.20;58.00;;;;;;6862223;28;20523;-80
2022/07/13 17:05:24;;;;;;;2.63;0.80;;;28.20;60.30;;;;;;6862407;28;20522;-78
2022/07/13 17:08:47;;;;;;;3.97;0.82;;;28.20;51.90;;;;;;6862433;28;20838;-80
2022/07/13 17:12:09;;;;;;;1.87;0.70;;;28.00;52.20;;;;;;6861994;28;20520;-78
2022/07/13 17:15:35;;;;;;;2.70;0.70;;;27.90;47.90;;;;;;6862188;28;20439;-79
2022/07/13 17:19:06;;;;;;;3.42;0.70;;;27.90;47.80;;;;;;6861980;28;20467;-79
2022/07/13 17:22:28;;;;;;;2.65;0.70;;;27.80;48.30;;;;;;6861964;28;20790;-78
2022/07/13 17:25:50;;;;;;;4.25;0.90;;;27.80;48.10;;;;;;6862069;28;20944;-79
2022/07/13 17:29:12;;;;;;;4.47;0.90;;;27.80;48.60;;;;;;6861737;28;20438;-79
2022/07/13 17:32:36;;;;;;;3.90;0.90;;;27.70;47.90;;;;;;6861638;28;20763;-78
2022/07/13 17:36:00;;;;;;;3.15;0.80;;;27.70;47.50;;;;;;6862115;28;20913;-78
2022/07/13 17:39:22;;;;;;;5.15;0.90;;;27.70;46.90;;;;;;6861698;28;20775;-78
2022/07/13 17:42:44;;;;;;;2.88;0.85;;;27.70;47.10;;;;;;6861410;28;20477;-78
2022/07/13 17:46:06;;;;;;;3.00;1.10;;;27.60;48.00;;;;;;6861518;28;20451;-78
2022/07/13 17:49:29;;;;;;;3.88;1.30;;;27.50;48.70;;;;;;6860933;28;20443;-77